Time;durP1;ratioP1;P1;durP2;ratioP2;P2;SDS_P1;SDS_P2;PMS_P1;PMS_P2;Temp;Humidity;BMP_temperature;BMP_pressure;BME280_temperature;BME280_humidity;BME280_pressure;Samples;Min_cycle;Max_cycle;Signal;HPM_P1;HPM_P2
2022/04/27 00:02:13;;;;;;;17.27;9.83;;;19.00;90.10;;;;;;5051586;28;20217;-80
2022/04/27 00:04:44;;;;;;;14.40;8.77;;;19.00;89.80;;;;;;5065056;28;20317;-81
2022/04/27 00:07:15;;;;;;;13.23;8.03;;;19.10;90.10;;;;;;5042590;28;20189;-80
2022/04/27 00:09:43;;;;;;;14.57;7.97;;;19.10;89.70;;;;;;5056460;28;20201;-78
2022/04/27 00:12:22;;;;;;;14.10;8.17;;;19.20;89.50;;;;;;5050867;28;20193;-78
2022/04/27 00:14:54;;;;;;;9.83;7.17;;;19.30;89.50;;;;;;5045342;28;20191;-78
2022/04/27 00:17:21;;;;;;;12.33;8.90;;;19.30;89.40;;;;;;5054906;28;20629;-78
2022/04/27 00:19:49;;;;;;;12.33;9.43;;;19.30;89.10;;;;;;5048673;28;20192;-75
2022/04/27 00:22:17;;;;;;;15.53;9.27;;;19.30;89.50;;;;;;5050264;28;20222;-76
2022/04/27 00:24:45;;;;;;;16.53;10.03;;;19.30;89.50;;;;;;5054911;28;20313;-76
2022/04/27 00:27:14;;;;;;;17.67;11.67;;;19.20;89.70;;;;;;5067207;28;20198;-76
2022/04/27 00:29:42;;;;;;;17.53;9.70;;;19.20;89.70;;;;;;5050965;28;20199;-79
2022/04/27 00:32:10;;;;;;;22.00;9.83;;;19.10;90.10;;;;;;5082615;28;20184;-80
2022/04/27 00:34:44;;;;;;;15.70;8.93;;;19.10;90.40;;;;;;5052908;28;20204;-82
2022/04/27 00:37:12;;;;;;;14.33;8.80;;;19.10;90.50;;;;;;5051567;28;20184;-80
2022/04/27 00:39:40;;;;;;;16.73;8.83;;;19.10;90.90;;;;;;5048613;28;20188;-80
2022/04/27 00:42:25;;;;;;;20.17;10.40;;;19.20;91.00;;;;;;5055759;28;20236;-79
2022/04/27 00:45:14;;;;;;;18.67;10.70;;;19.10;91.20;;;;;;5051284;28;20194;-77
2022/04/27 00:47:42;;;;;;;22.90;11.40;;;19.20;92.00;;;;;;5052155;28;20191;-77
2022/04/27 00:50:11;;;;;;;23.77;11.87;;;19.10;92.40;;;;;;5057808;28;20192;-78
2022/04/27 00:52:38;;;;;;;20.77;10.80;;;18.90;92.40;;;;;;5050726;28;20180;-77
2022/04/27 00:55:07;;;;;;;17.47;10.83;;;18.80;92.60;;;;;;5059123;28;20179;-77
2022/04/27 00:57:35;;;;;;;15.27;10.53;;;18.80;92.60;;;;;;5068537;28;20189;-79
2022/04/27 01:00:05;;;;;;;17.87;10.07;;;18.80;92.80;;;;;;5067553;28;20601;-77
2022/04/27 01:02:35;;;;;;;17.03;10.33;;;18.70;92.70;;;;;;5056650;28;20176;-77
2022/04/27 01:05:07;;;;;;;18.07;10.50;;;18.70;92.80;;;;;;5054853;28;20222;-78
2022/04/27 01:07:39;;;;;;;16.80;9.93;;;18.70;93.00;;;;;;5055057;28;20175;-78
2022/04/27 01:10:12;;;;;;;15.90;10.67;;;18.70;93.10;;;;;;5061323;28;20195;-76
2022/04/27 01:12:45;;;;;;;15.03;8.67;;;18.80;93.20;;;;;;5068826;28;20180;-77
2022/04/27 01:15:13;;;;;;;13.60;8.77;;;18.80;93.30;;;;;;5061727;28;20221;-77
2022/04/27 01:17:45;;;;;;;14.87;9.37;;;18.80;93.10;;;;;;5050988;28;20237;-76
2022/04/27 01:20:13;;;;;;;15.87;8.90;;;19.00;93.40;;;;;;5078736;28;20307;-76
2022/04/27 01:22:41;;;;;;;16.37;9.33;;;19.20;93.50;;;;;;5031101;28;20674;-77
2022/04/27 01:25:10;;;;;;;11.23;6.77;;;19.10;93.10;;;;;;5049286;28;20198;-77
2022/04/27 01:27:43;;;;;;;14.87;7.53;;;19.20;93.10;;;;;;5057047;28;20189;-77
2022/04/27 01:30:11;;;;;;;14.20;7.70;;;19.30;93.00;;;;;;5054196;28;20650;-79
2022/04/27 01:32:39;;;;;;;16.30;7.47;;;19.30;93.10;;;;;;5050117;28;20211;-79
2022/04/27 01:35:07;;;;;;;13.10;7.37;;;19.30;93.10;;;;;;5055242;28;20541;-80
2022/04/27 01:40:21;;;;;;;11.40;6.93;;;19.30;92.70;;;;;;5042476;28;20530;-79
2022/04/27 01:42:51;;;;;;;11.07;7.43;;;19.20;92.20;;;;;;5053412;28;20236;-79
2022/04/27 01:45:21;;;;;;;13.00;7.17;;;19.20;92.60;;;;;;5040150;28;20180;-81
2022/04/27 01:47:49;;;;;;;12.23;7.23;;;19.20;92.80;;;;;;5052283;28;20184;-80
2022/04/27 01:50:22;;;;;;;14.43;7.90;;;19.20;92.80;;;;;;5050007;28;20241;-76
2022/04/27 01:55:36;;;;;;;12.73;6.80;;;19.20;92.80;;;;;;5052792;28;20203;-80
2022/04/27 01:58:04;;;;;;;10.50;7.10;;;19.30;92.70;;;;;;5055297;28;20195;-77
2022/04/27 02:00:31;;;;;;;13.10;6.70;;;19.30;92.80;;;;;;5053979;28;20201;-78
2022/04/27 02:02:59;;;;;;;11.50;6.67;;;19.40;92.50;;;;;;5062424;28;20249;-79
2022/04/27 02:05:28;;;;;;;12.27;6.33;;;19.50;92.50;;;;;;5064584;28;20189;-79
2022/04/27 02:07:57;;;;;;;14.17;7.50;;;19.70;92.30;;;;;;5063735;28;20290;-77
2022/04/27 02:10:27;;;;;;;13.63;6.93;;;19.60;91.90;;;;;;5056454;28;20183;-76
2022/04/27 02:12:54;;;;;;;10.37;7.27;;;19.70;91.90;;;;;;5057830;28;20274;-76
2022/04/27 02:15:22;;;;;;;9.00;7.13;;;19.60;91.40;;;;;;5067038;28;20183;-77
2022/04/27 02:17:50;;;;;;;9.90;6.70;;;19.50;91.60;;;;;;5065088;28;20217;-77
2022/04/27 02:20:18;;;;;;;14.43;7.70;;;19.50;91.80;;;;;;5054953;28;20566;-76
2022/04/27 02:22:46;;;;;;;13.10;7.30;;;19.50;92.50;;;;;;5048058;28;20198;-77
2022/04/27 02:25:14;;;;;;;11.13;6.87;;;19.40;92.00;;;;;;5046292;28;20183;-77
2022/04/27 02:27:43;;;;;;;12.20;6.53;;;19.50;91.90;;;;;;5056850;28;20199;-77
2022/04/27 02:30:12;;;;;;;11.97;7.70;;;19.60;91.70;;;;;;5051291;28;20188;-76
2022/04/27 02:32:40;;;;;;;17.27;7.60;;;19.70;91.50;;;;;;5067922;28;20192;-76
2022/04/27 02:35:09;;;;;;;11.57;6.97;;;19.60;91.40;;;;;;5051599;28;20262;-76
2022/04/27 02:37:38;;;;;;;9.80;5.87;;;19.60;91.50;;;;;;5055065;28;20209;-77
2022/04/27 02:40:10;;;;;;;10.73;6.80;;;19.70;91.40;;;;;;5052541;28;20245;-80
2022/04/27 02:42:38;;;;;;;10.43;6.10;;;19.70;91.00;;;;;;5042635;28;20757;-77
2022/04/27 02:45:06;;;;;;;10.70;6.00;;;19.70;91.40;;;;;;5048744;28;20199;-82
2022/04/27 02:47:34;;;;;;;9.37;6.17;;;19.70;91.20;;;;;;5038397;28;20191;-85
2022/04/27 02:52:51;;;;;;;10.73;6.53;;;19.80;91.10;;;;;;5053086;28;20596;-78
2022/04/27 02:55:19;;;;;;;9.77;6.10;;;19.80;90.80;;;;;;5048332;28;20639;-77
2022/04/27 02:57:46;;;;;;;12.47;6.53;;;19.80;90.60;;;;;;5051905;28;20639;-79
2022/04/27 03:00:14;;;;;;;11.80;6.73;;;19.80;90.90;;;;;;5044500;28;20184;-80
2022/04/27 03:02:42;;;;;;;13.43;6.67;;;19.80;91.10;;;;;;5044995;28;20600;-80
2022/04/27 03:05:10;;;;;;;10.07;6.63;;;19.80;91.20;;;;;;5045744;28;20377;-76
2022/04/27 03:07:38;;;;;;;14.77;7.20;;;19.80;91.20;;;;;;5047964;28;20265;-80
2022/04/27 03:10:06;;;;;;;10.07;6.33;;;19.80;91.40;;;;;;5049072;28;20219;-82
2022/04/27 03:12:34;;;;;;;12.17;6.70;;;19.80;91.30;;;;;;5049032;28;20216;-85
2022/04/27 03:15:02;;;;;;;11.00;6.30;;;19.70;91.20;;;;;;5047252;28;20188;-87
2022/04/27 03:17:29;;;;;;;11.73;6.50;;;19.70;91.50;;;;;;5048166;28;20792;-83
2022/04/27 03:19:56;;;;;;;8.97;5.63;;;19.70;91.60;;;;;;5050391;28;20271;-83
2022/04/27 03:22:24;;;;;;;10.27;5.97;;;19.70;91.50;;;;;;5042209;28;20222;-82
2022/04/27 03:24:51;;;;;;;10.50;6.27;;;19.70;91.60;;;;;;5043945;28;20242;-89
2022/04/27 03:27:18;;;;;;;10.03;6.60;;;19.70;91.50;;;;;;5047910;28;20175;-83
2022/04/27 03:29:46;;;;;;;12.07;7.50;;;19.70;91.50;;;;;;5048866;28;20180;-85
2022/04/27 03:32:13;;;;;;;12.77;7.20;;;19.70;91.50;;;;;;5051509;28;20192;-86
2022/04/27 03:34:41;;;;;;;15.17;8.87;;;19.70;91.70;;;;;;5048683;28;20546;-87
2022/04/27 03:37:08;;;;;;;12.80;7.40;;;19.70;91.70;;;;;;5051028;28;20191;-88
2022/04/27 03:39:35;;;;;;;15.40;7.63;;;19.70;91.90;;;;;;5055713;28;20183;-87
2022/04/27 03:42:03;;;;;;;15.50;8.40;;;19.70;91.90;;;;;;5053949;28;21134;-80
2022/04/27 03:44:30;;;;;;;14.00;8.10;;;19.70;91.90;;;;;;5049147;28;20215;-82
2022/04/27 03:46:58;;;;;;;17.07;8.77;;;19.70;92.00;;;;;;5053588;28;20187;-89
2022/04/27 03:49:25;;;;;;;14.03;8.87;;;19.70;92.20;;;;;;5048968;28;20194;-87
2022/04/27 03:51:52;;;;;;;11.80;8.23;;;19.70;92.40;;;;;;5047989;28;20180;-85
2022/04/27 03:54:20;;;;;;;12.00;8.50;;;19.60;92.40;;;;;;5043242;28;20191;-91
2022/04/27 03:56:47;;;;;;;15.13;8.73;;;19.60;92.50;;;;;;5052154;28;20211;-89
2022/04/27 03:59:15;;;;;;;13.20;8.57;;;19.60;92.60;;;;;;5049830;28;20184;-92
2022/04/27 04:01:43;;;;;;;12.80;8.30;;;19.60;92.60;;;;;;5052348;28;20199;-84
2022/04/27 04:04:10;;;;;;;15.07;8.87;;;19.60;92.70;;;;;;5049507;28;20576;-84
2022/04/27 04:06:39;;;;;;;17.37;9.50;;;19.60;92.60;;;;;;5041187;28;20185;-83
2022/04/27 04:09:06;;;;;;;16.43;9.13;;;19.60;92.60;;;;;;5045011;28;20241;-81
2022/04/27 04:11:34;;;;;;;13.80;8.37;;;19.60;92.60;;;;;;5045146;28;20184;-79
2022/04/27 04:14:01;;;;;;;15.83;9.27;;;19.60;92.50;;;;;;5043688;28;20175;-81
2022/04/27 04:16:28;;;;;;;15.83;9.23;;;19.60;92.70;;;;;;5038168;28;20188;-80
2022/04/27 04:18:56;;;;;;;16.37;9.87;;;19.60;92.70;;;;;;5043187;28;20187;-81
2022/04/27 04:21:24;;;;;;;11.47;8.77;;;19.60;92.60;;;;;;5043766;28;20184;-80
2022/04/27 04:23:51;;;;;;;16.03;10.40;;;19.60;92.60;;;;;;5038106;28;20286;-81
2022/04/27 04:29:04;;;;;;;19.33;9.10;;;19.60;92.80;;;;;;5047396;28;20618;-80
2022/04/27 04:31:31;;;;;;;14.87;8.97;;;19.60;92.90;;;;;;5041033;28;20188;-84
2022/04/27 04:33:59;;;;;;;16.03;9.20;;;19.60;92.80;;;;;;5041975;28;20659;-82
2022/04/27 04:36:26;;;;;;;13.67;8.97;;;19.60;92.80;;;;;;5051107;28;20533;-80
2022/04/27 04:38:53;;;;;;;15.27;10.33;;;19.60;92.80;;;;;;5051975;28;20187;-81
2022/04/27 04:41:21;;;;;;;15.10;10.20;;;19.60;92.90;;;;;;5044991;28;20763;-81
2022/04/27 04:43:48;;;;;;;22.43;12.33;;;19.60;93.00;;;;;;5045517;28;20273;-79
2022/04/27 04:46:15;;;;;;;20.83;11.90;;;19.70;93.30;;;;;;5050680;28;20654;-80
2022/04/27 04:48:43;;;;;;;17.00;11.67;;;19.70;93.30;;;;;;5054203;28;20252;-78
2022/04/27 04:51:10;;;;;;;15.90;10.53;;;19.60;93.40;;;;;;5050624;28;20176;-80
2022/04/27 04:53:38;;;;;;;18.33;10.97;;;19.60;93.30;;;;;;5048078;28;20203;-80
2022/04/27 04:56:05;;;;;;;14.33;10.50;;;19.50;93.30;;;;;;5049177;28;20183;-79
2022/04/27 04:58:32;;;;;;;16.47;11.30;;;19.50;93.30;;;;;;5054178;28;20916;-80
2022/04/27 05:01:01;;;;;;;15.67;10.93;;;19.50;93.30;;;;;;5050456;28;20191;-79
2022/04/27 05:03:29;;;;;;;19.47;11.70;;;19.50;93.40;;;;;;5052977;28;20678;-80
2022/04/27 05:05:56;;;;;;;17.13;11.40;;;19.50;93.50;;;;;;5053236;28;20256;-76
2022/04/27 05:08:23;;;;;;;19.80;11.70;;;19.50;93.70;;;;;;5055572;28;20206;-78
2022/04/27 05:10:51;;;;;;;20.77;12.17;;;19.50;93.70;;;;;;5054527;28;20565;-77
2022/04/27 05:13:18;;;;;;;20.07;12.33;;;19.50;93.80;;;;;;5053565;28;20172;-78
2022/04/27 05:15:46;;;;;;;19.03;12.67;;;19.60;93.80;;;;;;5052143;28;20180;-77
2022/04/27 05:18:13;;;;;;;18.90;11.73;;;19.60;93.90;;;;;;5054662;28;20206;-78
2022/04/27 05:20:40;;;;;;;23.40;12.80;;;19.60;94.00;;;;;;5037276;28;20176;-77
2022/04/27 05:23:08;;;;;;;17.73;12.17;;;19.50;94.00;;;;;;5053822;28;20823;-78
2022/04/27 05:25:35;;;;;;;19.50;12.23;;;19.50;94.00;;;;;;5054653;28;20626;-77
2022/04/27 05:28:03;;;;;;;17.43;12.97;;;19.50;94.10;;;;;;5054646;28;20275;-77
2022/04/27 05:33:19;;;;;;;19.17;13.00;;;19.40;94.10;;;;;;5054632;28;20194;-76
2022/04/27 05:35:46;;;;;;;19.40;12.17;;;19.40;94.30;;;;;;5046497;28;20654;-78
2022/04/27 05:38:14;;;;;;;18.97;12.77;;;19.30;94.30;;;;;;5035118;28;20542;-77
2022/04/27 05:40:43;;;;;;;18.97;12.33;;;19.30;94.30;;;;;;5035160;28;20262;-77
2022/04/27 05:43:13;;;;;;;19.23;12.30;;;19.30;94.40;;;;;;5033657;28;20259;-77
2022/04/27 05:45:40;;;;;;;20.70;12.80;;;19.30;94.40;;;;;;5034759;28;20179;-77
2022/04/27 05:48:08;;;;;;;20.63;12.83;;;19.20;94.50;;;;;;5034696;28;20210;-76
2022/04/27 05:50:36;;;;;;;19.40;12.97;;;19.30;94.50;;;;;;5034814;28;20175;-77
2022/04/27 05:53:04;;;;;;;19.00;13.57;;;19.20;94.50;;;;;;5050072;28;20274;-77
2022/04/27 05:55:31;;;;;;;18.10;12.33;;;19.20;94.50;;;;;;5054386;28;20640;-77
2022/04/27 05:57:59;;;;;;;15.40;11.97;;;19.20;94.60;;;;;;5053999;28;20646;-77
2022/04/27 06:00:27;;;;;;;19.37;12.27;;;19.20;94.60;;;;;;5054395;28;20700;-75
2022/04/27 06:02:54;;;;;;;20.97;12.73;;;19.10;94.60;;;;;;5054337;28;20168;-76
2022/04/27 06:05:21;;;;;;;18.10;12.30;;;19.10;94.60;;;;;;5053068;28;20246;-76
2022/04/27 06:07:49;;;;;;;18.40;11.57;;;19.10;94.60;;;;;;5051889;28;20263;-76
2022/04/27 06:10:16;;;;;;;19.63;12.10;;;19.10;94.60;;;;;;5051080;28;20186;-76
2022/04/27 06:12:49;;;;;;;17.27;11.97;;;19.10;94.70;;;;;;5053837;28;20696;-77
2022/04/27 06:15:16;;;;;;;24.57;12.30;;;19.10;94.60;;;;;;5054187;28;20233;-77
2022/04/27 06:17:44;;;;;;;19.63;13.20;;;19.10;94.70;;;;;;5053832;28;20176;-77
2022/04/27 06:20:12;;;;;;;21.43;13.00;;;19.10;94.70;;;;;;5053782;28;20666;-76
2022/04/27 06:22:39;;;;;;;16.57;12.57;;;19.10;94.80;;;;;;5053690;28;20180;-77
2022/04/27 06:25:08;;;;;;;19.10;12.87;;;19.20;94.90;;;;;;5053592;28;20268;-76
2022/04/27 06:27:35;;;;;;;20.10;13.13;;;19.20;94.90;;;;;;5053661;28;20646;-77
2022/04/27 06:30:03;;;;;;;19.30;12.67;;;19.10;94.90;;;;;;5053864;28;20587;-77
2022/04/27 06:32:32;;;;;;;17.90;11.73;;;19.10;94.90;;;;;;5053802;28;20176;-77
2022/04/27 06:35:00;;;;;;;19.63;12.23;;;19.10;94.90;;;;;;5053758;28;20286;-77
2022/04/27 06:37:28;;;;;;;21.43;13.87;;;19.10;95.00;;;;;;5053753;28;20570;-77
2022/04/27 06:39:56;;;;;;;20.57;13.23;;;19.10;95.00;;;;;;5059517;28;20184;-78
2022/04/27 06:42:24;;;;;;;21.67;13.40;;;19.10;95.00;;;;;;5066847;28;20572;-78
2022/04/27 06:44:51;;;;;;;21.80;14.23;;;19.00;94.90;;;;;;5047332;28;20354;-76
2022/04/27 06:47:19;;;;;;;20.10;13.73;;;19.00;94.90;;;;;;5033906;28;20686;-76
2022/04/27 06:49:46;;;;;;;25.57;14.73;;;18.90;94.90;;;;;;5052888;28;20175;-76
2022/04/27 06:52:13;;;;;;;23.43;15.70;;;18.90;95.00;;;;;;5054072;28;20186;-76
2022/04/27 06:54:41;;;;;;;22.07;15.33;;;18.90;95.00;;;;;;5061128;28;20671;-76
2022/04/27 06:57:08;;;;;;;21.67;16.17;;;18.90;95.10;;;;;;5053422;28;20263;-77
2022/04/27 06:59:38;;;;;;;23.33;15.67;;;18.80;95.10;;;;;;5065441;28;20215;-78
2022/04/27 07:02:08;;;;;;;23.40;15.13;;;18.80;95.10;;;;;;5064527;28;20255;-76
2022/04/27 07:04:36;;;;;;;25.73;16.53;;;18.80;95.20;;;;;;5053130;28;20203;-77
2022/04/27 07:07:04;;;;;;;21.30;15.63;;;18.80;95.20;;;;;;5053634;28;20186;-76
2022/04/27 07:09:35;;;;;;;22.20;16.73;;;18.80;95.20;;;;;;5053514;28;20191;-76
2022/04/27 07:12:03;;;;;;;21.60;16.17;;;18.80;95.30;;;;;;5052256;28;20533;-76
2022/04/27 07:14:30;;;;;;;22.70;15.80;;;18.70;95.20;;;;;;5051072;28;20180;-76
2022/04/27 07:16:58;;;;;;;21.40;15.33;;;18.70;95.30;;;;;;5050289;28;20249;-76
2022/04/27 07:19:25;;;;;;;26.93;16.77;;;18.70;95.30;;;;;;5036713;28;20322;-76
2022/04/27 07:21:52;;;;;;;23.70;17.17;;;18.60;95.30;;;;;;5045566;28;20230;-76
2022/04/27 07:24:20;;;;;;;26.93;17.87;;;18.60;95.40;;;;;;5047546;28;20218;-77
2022/04/27 07:26:48;;;;;;;21.37;16.00;;;18.60;95.40;;;;;;5052185;28;20160;-77
2022/04/27 07:29:15;;;;;;;28.30;17.60;;;18.60;95.50;;;;;;5052619;28;20172;-76
2022/04/27 07:31:43;;;;;;;26.63;16.43;;;18.50;95.50;;;;;;5052338;28;20176;-77
2022/04/27 07:34:10;;;;;;;19.07;15.80;;;18.50;95.50;;;;;;5052359;28;20719;-77
2022/04/27 07:36:37;;;;;;;24.50;15.87;;;18.50;95.60;;;;;;5056591;28;20543;-77
2022/04/27 07:39:06;;;;;;;23.47;15.93;;;18.50;95.60;;;;;;5055637;28;20197;-77
2022/04/27 07:41:34;;;;;;;23.10;16.00;;;18.50;95.60;;;;;;5052172;28;20184;-77
2022/04/27 07:44:02;;;;;;;22.63;16.17;;;18.50;95.60;;;;;;5051730;28;20211;-77
2022/04/27 07:46:30;;;;;;;29.17;20.60;;;18.50;95.60;;;;;;5068052;28;20683;-77
2022/04/27 07:48:58;;;;;;;24.73;19.63;;;18.50;95.80;;;;;;5052066;28;20615;-77
2022/04/27 07:51:25;;;;;;;28.63;19.37;;;18.50;95.80;;;;;;5055790;28;20209;-76
2022/04/27 07:53:52;;;;;;;29.40;16.97;;;18.60;95.80;;;;;;5039874;28;20267;-76
2022/04/27 07:56:20;;;;;;;21.90;16.57;;;18.60;95.80;;;;;;5058173;28;20180;-76
2022/04/27 07:58:47;;;;;;;24.27;16.53;;;18.60;95.80;;;;;;5051331;28;20542;-76
2022/04/27 08:01:15;;;;;;;21.63;16.27;;;18.50;95.80;;;;;;5051781;28;20255;-77
2022/04/27 08:03:43;;;;;;;23.43;17.13;;;18.50;95.80;;;;;;5050885;28;20277;-77
2022/04/27 08:06:10;;;;;;;38.07;29.47;;;18.50;95.90;;;;;;5046859;28;20649;-77
2022/04/27 08:08:38;;;;;;;36.13;32.23;;;18.50;95.90;;;;;;5055565;28;20534;-76
2022/04/27 08:11:07;;;;;;;27.57;19.90;;;18.50;95.80;;;;;;5056628;28;20292;-76
2022/04/27 08:13:35;;;;;;;24.93;18.60;;;18.40;95.80;;;;;;5067212;28;20183;-77
2022/04/27 08:16:02;;;;;;;26.43;17.47;;;18.40;95.80;;;;;;5056012;28;20377;-76
2022/04/27 08:18:32;;;;;;;25.20;16.57;;;18.40;95.80;;;;;;5056223;28;20186;-76
2022/04/27 08:21:15;;;;;;;24.73;17.03;;;18.40;95.80;;;;;;5056061;28;20180;-76
2022/04/27 08:23:45;;;;;;;23.83;16.80;;;18.30;95.80;;;;;;5036255;28;20223;-76
2022/04/27 08:26:13;;;;;;;25.57;16.67;;;18.30;95.80;;;;;;5066331;28;20226;-78
2022/04/27 08:28:42;;;;;;;28.67;18.13;;;18.30;95.90;;;;;;5065906;28;20229;-77
2022/04/27 08:31:12;;;;;;;30.37;19.00;;;18.40;95.90;;;;;;5072904;28;20635;-76
2022/04/27 08:33:39;;;;;;;27.10;19.13;;;18.40;95.90;;;;;;5035983;28;20192;-77
2022/04/27 08:36:07;;;;;;;18.40;13.57;;;18.40;95.90;;;;;;5050790;28;20183;-76
2022/04/27 08:38:35;;;;;;;35.13;20.07;;;18.40;95.80;;;;;;5075515;28;20240;-77
2022/04/27 08:41:03;;;;;;;29.17;19.40;;;18.40;95.90;;;;;;5061096;28;20548;-77
2022/04/27 08:43:31;;;;;;;28.30;20.20;;;18.50;95.90;;;;;;5052576;28;20316;-76
2022/04/27 08:46:03;;;;;;;30.70;19.40;;;18.40;95.90;;;;;;5053763;28;20192;-76
2022/04/27 08:48:31;;;;;;;25.50;18.80;;;18.40;95.90;;;;;;5053376;28;20230;-76
2022/04/27 08:51:02;;;;;;;26.17;17.80;;;18.40;96.00;;;;;;5051826;28;20285;-76
2022/04/27 08:53:30;;;;;;;28.77;17.73;;;18.40;96.00;;;;;;5054578;28;20630;-76
2022/04/27 08:55:58;;;;;;;31.70;19.97;;;18.40;96.00;;;;;;5054595;28;20631;-75
2022/04/27 08:58:25;;;;;;;31.37;19.93;;;18.40;96.10;;;;;;5055658;28;20207;-75
2022/04/27 09:00:53;;;;;;;29.70;20.37;;;18.40;96.00;;;;;;5054289;28;20215;-75
2022/04/27 09:03:37;;;;;;;31.80;18.80;;;18.50;96.10;;;;;;5054447;28;20211;-75
2022/04/27 09:06:06;;;;;;;28.67;17.90;;;18.40;96.10;;;;;;5034748;28;20188;-76
2022/04/27 09:08:46;;;;;;;24.00;17.87;;;18.50;96.00;;;;;;5052987;28;20202;-76
2022/04/27 09:11:28;;;;;;;29.43;19.67;;;18.40;96.10;;;;;;5053759;28;20175;-76
2022/04/27 09:13:59;;;;;;;23.97;17.60;;;18.40;96.10;;;;;;5060992;28;20246;-76
2022/04/27 09:22:28;;;;;;;19.83;15.07;;;18.40;96.10;;;;;;5050295;28;20188;-76
2022/04/27 09:24:58;;;;;;;23.57;15.27;;;18.40;96.10;;;;;;5053354;28;20200;-75
2022/04/27 09:27:26;;;;;;;25.57;15.90;;;18.40;96.10;;;;;;5053710;28;20704;-75
2022/04/27 09:30:11;;;;;;;32.77;22.20;;;18.30;96.10;;;;;;5050910;28;20654;-76
2022/04/27 09:32:39;;;;;;;24.63;19.70;;;18.40;96.20;;;;;;5054940;28;20191;-76
2022/04/27 09:35:09;;;;;;;30.40;19.07;;;18.30;96.10;;;;;;5054572;28;20184;-78
2022/04/27 09:37:42;;;;;;;24.20;17.77;;;18.30;96.10;;;;;;5053678;28;20572;-78
2022/04/27 09:40:13;;;;;;;28.03;17.83;;;18.40;96.10;;;;;;5054882;28;20638;-78
2022/04/27 09:42:46;;;;;;;23.07;16.97;;;18.40;96.10;;;;;;5060707;28;20590;-78
2022/04/27 09:45:21;;;;;;;35.03;19.07;;;18.40;96.20;;;;;;5064665;28;20191;-79
2022/04/27 09:47:50;;;;;;;28.27;18.67;;;18.40;96.20;;;;;;5056160;28;20570;-78
2022/04/27 09:50:18;;;;;;;24.03;18.07;;;18.40;96.10;;;;;;5072620;28;20185;-78
2022/04/27 09:52:46;;;;;;;24.80;16.73;;;18.30;96.10;;;;;;5041822;28;20181;-79
2022/04/27 09:55:13;;;;;;;24.03;18.10;;;18.40;96.20;;;;;;5034561;28;20643;-78
2022/04/27 09:57:42;;;;;;;26.93;19.27;;;18.40;96.20;;;;;;5034499;28;20627;-78
2022/04/27 10:00:12;;;;;;;24.80;16.47;;;18.40;96.20;;;;;;5049154;28;20619;-79
2022/04/27 10:02:46;;;;;;;26.50;17.60;;;18.40;96.20;;;;;;5052913;28;20187;-77
2022/04/27 10:05:13;;;;;;;21.67;16.47;;;18.40;96.20;;;;;;5066679;28;20204;-79
2022/04/27 10:07:42;;;;;;;23.50;18.03;;;18.40;96.20;;;;;;5034190;28;20203;-79
2022/04/27 10:10:10;;;;;;;26.63;17.10;;;18.50;96.20;;;;;;5041089;28;20180;-78
2022/04/27 10:12:39;;;;;;;35.77;19.53;;;18.50;96.20;;;;;;5053463;28;20207;-77
2022/04/27 10:15:07;;;;;;;24.53;17.23;;;18.50;96.20;;;;;;5037211;28;20272;-78
2022/04/27 10:17:34;;;;;;;29.63;18.27;;;18.40;96.20;;;;;;5049704;28;20180;-79
2022/04/27 10:20:22;;;;;;;30.87;18.90;;;18.30;96.10;;;;;;5033886;28;20532;-79
2022/04/27 10:22:49;;;;;;;31.23;19.37;;;18.30;96.20;;;;;;5058745;28;20218;-78
2022/04/27 10:25:16;;;;;;;30.30;21.37;;;18.30;96.20;;;;;;5054057;28;20587;-77
2022/04/27 10:27:44;;;;;;;31.87;20.97;;;18.30;96.10;;;;;;5059555;28;20178;-78
2022/04/27 10:30:14;;;;;;;31.37;18.53;;;18.30;96.20;;;;;;5073367;28;20174;-78
2022/04/27 10:32:45;;;;;;;30.43;16.97;;;18.20;96.20;;;;;;5058095;28;20270;-77
2022/04/27 10:35:27;;;;;;;31.63;20.43;;;18.20;96.30;;;;;;5052553;28;20661;-77
2022/04/27 10:38:02;;;;;;;23.73;18.07;;;18.20;96.30;;;;;;5052557;28;20647;-77
2022/04/27 10:40:39;;;;;;;27.37;20.37;;;18.10;96.30;;;;;;5054313;28;20191;-78
2022/04/27 10:43:10;;;;;;;23.03;16.83;;;18.20;96.40;;;;;;5052305;28;20240;-78
2022/04/27 10:45:45;;;;;;;31.87;20.97;;;18.10;96.30;;;;;;5050187;28;20200;-77
2022/04/27 10:48:27;;;;;;;24.50;18.00;;;18.10;96.40;;;;;;5069811;28;20189;-77
2022/04/27 10:50:58;;;;;;;25.43;19.20;;;18.20;96.50;;;;;;5073422;28;20372;-78
2022/04/27 10:53:27;;;;;;;30.03;20.73;;;18.30;96.40;;;;;;5043632;28;20584;-77
2022/04/27 10:55:59;;;;;;;23.83;18.67;;;18.30;96.40;;;;;;5044485;28;20651;-76
2022/04/27 10:58:31;;;;;;;26.07;17.07;;;18.30;96.40;;;;;;5050351;28;20204;-76
2022/04/27 11:01:05;;;;;;;37.17;27.23;;;18.30;96.40;;;;;;5051250;28;20198;-77
2022/04/27 11:03:39;;;;;;;28.37;21.80;;;18.30;96.40;;;;;;5070654;28;20306;-77
2022/04/27 11:06:11;;;;;;;28.37;23.90;;;18.30;96.30;;;;;;5071815;28;20189;-78
2022/04/27 11:08:45;;;;;;;21.03;17.93;;;18.30;96.30;;;;;;5072028;28;20175;-77
2022/04/27 11:11:12;;;;;;;22.10;17.07;;;18.30;96.30;;;;;;5054923;28;20237;-78
2022/04/27 11:13:40;;;;;;;28.17;18.63;;;18.40;96.30;;;;;;5053272;28;20195;-78
2022/04/27 11:16:10;;;;;;;20.80;16.77;;;18.40;96.20;;;;;;5051458;28;20184;-78
2022/04/27 11:18:50;;;;;;;27.07;16.50;;;18.40;96.30;;;;;;5050367;28;20184;-77
2022/04/27 11:21:22;;;;;;;27.20;19.03;;;18.40;96.30;;;;;;5053695;28;20172;-77
2022/04/27 11:23:49;;;;;;;28.80;18.50;;;18.40;96.30;;;;;;5050916;28;20203;-78
2022/04/27 11:26:17;;;;;;;29.60;18.67;;;18.40;96.30;;;;;;5048923;28;20629;-78
2022/04/27 11:28:48;;;;;;;22.30;16.97;;;18.40;96.20;;;;;;5052343;28;20705;-76
2022/04/27 11:31:17;;;;;;;29.17;19.07;;;18.40;96.30;;;;;;5052969;28;20191;-78
2022/04/27 11:33:44;;;;;;;29.87;18.57;;;18.30;96.30;;;;;;5035766;28;20191;-78
2022/04/27 11:36:26;;;;;;;36.77;20.87;;;18.40;96.30;;;;;;5046876;28;20211;-78
2022/04/27 11:38:55;;;;;;;27.20;18.80;;;18.40;96.30;;;;;;5052576;28;20183;-78
2022/04/27 11:41:26;;;;;;;28.43;16.50;;;18.30;96.30;;;;;;5051993;28;20182;-77
2022/04/27 11:43:54;;;;;;;21.47;17.50;;;18.30;96.30;;;;;;5052347;28;20267;-78
2022/04/27 11:46:21;;;;;;;29.20;18.33;;;18.30;96.30;;;;;;5052046;28;20252;-78
2022/04/27 11:48:52;;;;;;;28.97;19.67;;;18.30;96.30;;;;;;5061277;28;20179;-78
2022/04/27 11:51:20;;;;;;;28.50;18.40;;;18.30;96.30;;;;;;5054908;28;20186;-78
2022/04/27 11:53:50;;;;;;;26.27;19.13;;;18.30;96.40;;;;;;5051942;28;20543;-77
2022/04/27 11:56:19;;;;;;;26.17;19.37;;;18.30;96.40;;;;;;5046605;28;20227;-76
2022/04/27 11:58:47;;;;;;;28.13;19.40;;;18.30;96.40;;;;;;5034086;28;20184;-76
2022/04/27 12:01:22;;;;;;;26.20;17.40;;;18.30;96.40;;;;;;5044225;28;20192;-78
2022/04/27 12:03:50;;;;;;;36.57;26.27;;;18.30;96.40;;;;;;5032386;28;20244;-78
2022/04/27 12:06:26;;;;;;;30.10;22.83;;;18.30;96.40;;;;;;5048236;28;20229;-78
2022/04/27 12:08:59;;;;;;;27.13;20.43;;;18.40;96.40;;;;;;5044142;28;20235;-78
2022/04/27 12:11:26;;;;;;;26.33;19.40;;;18.40;96.40;;;;;;5047207;28;20183;-78
2022/04/27 12:13:58;;;;;;;27.13;18.93;;;18.40;96.30;;;;;;5052257;28;20202;-79
2022/04/27 12:16:31;;;;;;;33.07;19.40;;;18.30;96.40;;;;;;5061488;28;20187;-79
2022/04/27 12:18:59;;;;;;;28.03;19.23;;;18.30;96.40;;;;;;5071018;28;20179;-78
2022/04/27 12:21:27;;;;;;;28.87;19.07;;;18.30;96.40;;;;;;5059883;28;20639;-79
2022/04/27 12:23:58;;;;;;;21.57;16.90;;;18.30;96.40;;;;;;5049790;28;20623;-79
2022/04/27 12:26:26;;;;;;;23.53;17.53;;;18.30;96.40;;;;;;5048892;28;20540;-79
2022/04/27 12:28:53;;;;;;;30.97;19.77;;;18.30;96.40;;;;;;5050691;28;20217;-79
2022/04/27 12:31:27;;;;;;;23.80;18.13;;;18.30;96.50;;;;;;5051537;28;20184;-78
2022/04/27 12:33:58;;;;;;;28.60;19.27;;;18.30;96.40;;;;;;5049051;28;20539;-79
2022/04/27 12:39:25;;;;;;;26.93;19.23;;;18.30;96.50;;;;;;5041004;28;20635;-78
2022/04/27 12:42:07;;;;;;;28.60;17.40;;;18.30;96.60;;;;;;5051976;28;20237;-78
2022/04/27 12:44:41;;;;;;;30.73;17.03;;;18.30;96.50;;;;;;5051951;28;20210;-76
2022/04/27 12:47:13;;;;;;;29.90;19.73;;;18.30;96.60;;;;;;5045831;28;20633;-79
2022/04/27 12:49:45;;;;;;;31.17;20.27;;;18.30;96.50;;;;;;5047348;28;20267;-78
2022/04/27 12:52:18;;;;;;;33.57;19.83;;;18.30;96.50;;;;;;5051892;28;20779;-77
2022/04/27 12:54:46;;;;;;;29.43;18.30;;;18.30;96.60;;;;;;5052810;28;20188;-78
2022/04/27 12:57:14;;;;;;;27.57;17.97;;;18.30;96.60;;;;;;5056089;28;20188;-76
2022/04/27 13:00:03;;;;;;;32.33;18.93;;;18.30;96.50;;;;;;5054888;28;20217;-78
2022/04/27 13:02:30;;;;;;;27.47;18.67;;;18.30;96.60;;;;;;5054398;28;20646;-77
2022/04/27 13:04:57;;;;;;;23.43;18.50;;;18.30;96.60;;;;;;5055569;28;20266;-77